createdAt,value
2022-10-04T00:04:11.080Z,57965.28
2022-10-04T00:09:17.112Z,57965.28
2022-10-04T00:14:37.267Z,57965.28
2022-10-04T00:19:43.284Z,57965.28
2022-10-04T00:25:08.530Z,57965.28
2022-10-04T00:30:23.282Z,57965.28
2022-10-04T00:35:24.671Z,57965.28
2022-10-04T00:40:31.473Z,57965.28
2022-10-04T00:46:13.345Z,57965.28
2022-10-04T00:51:32.320Z,57965.28
2022-10-04T00:56:43.367Z,57965.28
2022-10-04T01:01:49.431Z,57965.28
2022-10-04T01:06:51.643Z,57965.28
2022-10-04T01:12:48.346Z,57965.28
2022-10-04T01:18:09.897Z,57965.28
2022-10-04T01:23:11.460Z,57965.28
2022-10-04T01:28:13.618Z,57965.28
2022-10-04T01:33:15.090Z,57965.28
2022-10-04T01:38:16.996Z,57965.28
2022-10-04T01:43:27.748Z,57965.28
2022-10-04T01:48:36.040Z,57965.28
2022-10-04T01:53:47.376Z,57965.28
2022-10-04T01:59:03.031Z,57965.28
2022-10-04T02:04:28.276Z,57965.28
2022-10-04T02:09:34.299Z,57965.28
2022-10-04T02:14:39.124Z,57965.28
2022-10-04T02:19:42.320Z,57965.28
2022-10-04T02:24:46.922Z,57965.28
2022-10-04T02:29:48.362Z,57965.28
2022-10-04T02:34:50.817Z,57965.28
2022-10-04T02:40:05.351Z,57965.28
2022-10-04T02:45:35.676Z,57965.28
2022-10-04T02:50:48.430Z,57965.28
2022-10-04T02:55:50.160Z,57965.28
2022-10-04T03:00:59.576Z,57965.28
2022-10-04T03:06:03.875Z,57965.28
2022-10-04T03:11:05.791Z,57965.28
2022-10-04T03:16:08.249Z,57965.28
2022-10-04T03:21:12.479Z,57965.28
2022-10-04T03:26:32.250Z,57965.28
2022-10-04T03:31:36.863Z,57965.28
2022-10-04T03:36:39.984Z,57965.28
2022-10-04T03:41:42.600Z,57965.28
2022-10-04T03:46:45.696Z,57965.28
2022-10-04T03:51:50.810Z,57965.28
2022-10-04T03:56:54.648Z,57965.28
2022-10-04T04:02:03.256Z,57965.28
2022-10-04T04:07:14.800Z,57965.28
2022-10-04T04:12:21.112Z,57965.28
2022-10-04T04:17:54.715Z,57965.28
2022-10-04T04:23:22.192Z,57965.28
2022-10-04T04:28:32.502Z,57965.28
2022-10-04T04:33:59.176Z,57965.28
2022-10-04T04:39:34.159Z,57965.28
2022-10-04T04:44:38.571Z,57965.28
2022-10-04T04:49:40.331Z,57965.28
2022-10-04T04:54:41.828Z,57965.28
2022-10-04T04:59:49.880Z,57965.28
2022-10-04T05:05:10.396Z,57965.28
2022-10-04T05:10:22.248Z,57965.28
2022-10-04T05:15:23.714Z,57965.28
2022-10-04T05:20:26.171Z,57965.28
2022-10-04T05:25:33.992Z,57965.28
2022-10-04T05:30:48.622Z,57965.28
2022-10-04T05:36:24.511Z,57965.28
2022-10-04T05:41:36.842Z,57965.28
2022-10-04T05:46:42.028Z,57965.28
2022-10-04T05:51:51.140Z,57965.28
2022-10-04T05:57:00.227Z,57965.28
2022-10-04T06:02:23.901Z,57965.28
2022-10-04T06:07:46.332Z,57965.28
2022-10-04T06:13:22.536Z,57965.28
2022-10-04T06:18:52.676Z,57965.28
2022-10-04T06:24:06.212Z,57965.28
2022-10-04T06:29:14.785Z,57965.28
2022-10-04T06:34:31.043Z,57965.28
2022-10-04T06:40:09.363Z,57965.28
2022-10-04T06:45:32.320Z,57965.28
2022-10-04T06:51:12.547Z,57965.28
2022-10-04T06:56:32.152Z,57965.28
2022-10-04T07:01:36.134Z,57965.28
2022-10-04T07:06:49.055Z,57965.28
2022-10-04T07:12:02.913Z,57965.28
2022-10-04T07:17:12.300Z,57965.28
2022-10-04T07:22:20.258Z,57965.28
2022-10-04T07:27:34.605Z,57965.28
2022-10-04T07:32:43.502Z,57965.28
2022-10-04T07:37:58.168Z,57965.28
2022-10-04T07:43:11.979Z,57965.28
2022-10-04T07:48:23.875Z,57965.28
2022-10-04T07:53:39.668Z,57965.28
2022-10-04T07:58:51.093Z,57965.28
2022-10-04T08:04:30.246Z,57965.28
2022-10-04T08:09:48.257Z,57965.28
2022-10-04T08:14:55.681Z,57965.28
2022-10-04T08:20:14.332Z,57965.28
2022-10-04T08:25:26.617Z,57965.28
2022-10-04T08:30:40.588Z,57965.28
2022-10-04T08:36:08.859Z,57965.28
2022-10-04T08:41:53.964Z,57965.28
2022-10-04T08:47:34.437Z,57965.28
2022-10-04T08:52:57.219Z,57965.28
2022-10-04T08:58:08.605Z,57965.28
2022-10-04T09:03:51.439Z,57965.28
2022-10-04T09:09:44.549Z,57965.28
2022-10-04T09:15:07.718Z,57965.28
2022-10-04T09:20:38.299Z,57965.28
2022-10-04T09:25:49.798Z,57965.28
2022-10-04T09:31:33.464Z,57965.28
2022-10-04T09:37:09.057Z,57965.28
2022-10-04T09:42:38.349Z,57965.28
2022-10-04T09:48:01.382Z,57965.28
2022-10-04T09:53:46.474Z,57965.28
2022-10-04T09:59:08.602Z,57965.28
2022-10-04T10:04:36.978Z,57965.28
2022-10-04T10:10:15.461Z,57965.28
2022-10-04T10:15:27.427Z,57965.28
2022-10-04T10:20:37.751Z,57965.28
2022-10-04T10:26:35.120Z,57965.28
2022-10-04T10:32:27.475Z,57965.28
2022-10-04T10:38:04.740Z,57965.28
2022-10-04T10:43:21.952Z,57965.28
2022-10-04T10:48:44.498Z,57965.28
2022-10-04T10:54:19.507Z,57965.28
2022-10-04T10:59:42.513Z,57965.28
2022-10-04T11:04:54.146Z,57965.28
2022-10-04T11:10:10.732Z,57965.28
2022-10-04T11:15:30.988Z,57965.28
2022-10-04T11:20:49.894Z,57965.28
2022-10-04T11:25:51.325Z,57965.28
2022-10-04T11:30:58.844Z,57965.28
2022-10-04T11:36:15.476Z,57965.28
2022-10-04T11:41:48.136Z,57965.28
2022-10-04T11:46:55.286Z,57965.28
2022-10-04T11:52:05.942Z,57965.28
2022-10-04T11:57:36.650Z,57965.28
2022-10-04T12:03:15.780Z,57965.28
2022-10-04T12:08:31.186Z,57965.28
2022-10-04T12:13:46.932Z,57965.28
2022-10-04T12:19:07.394Z,57965.28
2022-10-04T12:24:21.197Z,57965.28
2022-10-04T12:29:42.438Z,57965.28
2022-10-04T12:35:00.388Z,57965.28
2022-10-04T12:40:26.420Z,57965.28
2022-10-04T12:45:43.901Z,57965.28
2022-10-04T12:51:17.107Z,57965.28
2022-10-04T12:58:00.358Z,101468.41
2022-10-04T13:03:11.175Z,101467.97
2022-10-04T13:08:34.245Z,101459.97
2022-10-04T13:13:51.196Z,101465.78
2022-10-04T13:19:00.580Z,101458.50
2022-10-04T13:24:07.748Z,101437.88
2022-10-04T13:29:17.644Z,101432.97
2022-10-04T13:34:51.322Z,101434.97
2022-10-04T13:40:21.752Z,101415.00
2022-10-04T13:46:07.408Z,101408.19
2022-10-04T13:52:18.117Z,101405.94
2022-10-04T13:57:22.261Z,101400.00
2022-10-04T14:02:43.954Z,101388.97
2022-10-04T14:08:36.646Z,101390.88
2022-10-04T14:14:00.314Z,101393.00
2022-10-04T14:19:41.853Z,101395.47
2022-10-04T14:25:21.004Z,101383.59
2022-10-04T14:30:50.982Z,101381.75
2022-10-04T14:36:01.148Z,101372.34
2022-10-04T14:41:29.972Z,101371.84
2022-10-04T14:46:53.221Z,101369.59
2022-10-04T14:52:16.589Z,101357.91
2022-10-04T14:57:27.103Z,101360.34
2022-10-04T15:02:31.135Z,101357.41
2022-10-04T15:07:38.308Z,101353.03
2022-10-04T15:13:10.935Z,101352.81
2022-10-04T15:18:33.209Z,101359.00
2022-10-04T15:23:41.133Z,101360.03
2022-10-04T15:28:48.601Z,101370.41
2022-10-04T15:34:23.734Z,101370.41
2022-10-04T15:39:34.230Z,101368.81
2022-10-04T15:44:47.547Z,101368.69
2022-10-04T15:49:54.825Z,101365.81
2022-10-04T15:55:18.223Z,101364.53
2022-10-04T16:00:44.911Z,101366.59
2022-10-04T16:06:05.470Z,101372.28
2022-10-04T16:11:12.863Z,101360.06
2022-10-04T16:16:17.574Z,101360.81
2022-10-04T16:21:31.280Z,101353.47
2022-10-04T16:26:33.806Z,101347.72
2022-10-04T16:31:43.967Z,101352.28
2022-10-04T16:36:53.958Z,101353.41
2022-10-04T16:41:59.289Z,101354.25
2022-10-04T16:47:17.761Z,101345.09
2022-10-04T16:52:27.296Z,101341.34
2022-10-04T16:57:29.141Z,101337.94
2022-10-04T17:02:38.035Z,101346.59
2022-10-04T17:08:07.151Z,101347.53
2022-10-04T17:13:20.585Z,101353.41
2022-10-04T17:18:37.055Z,101359.25
2022-10-04T17:23:50.898Z,101367.84
2022-10-04T17:29:16.791Z,101378.22
2022-10-04T17:35:02.320Z,101376.13
2022-10-04T17:40:18.064Z,101400.63
2022-10-04T17:45:42.336Z,101407.06
2022-10-04T17:51:30.395Z,101401.00
2022-10-04T17:56:39.582Z,101404.38
2022-10-04T18:01:46.392Z,101401.34
2022-10-04T18:06:57.086Z,101407.69
2022-10-04T18:12:29.643Z,101409.91
2022-10-04T18:17:40.653Z,101410.06
2022-10-04T18:22:57.847Z,101405.63
2022-10-04T18:28:10.897Z,101403.06
2022-10-04T18:33:16.857Z,101412.84
2022-10-04T18:38:28.611Z,101418.56
2022-10-04T18:43:30.416Z,101424.22
2022-10-04T18:48:43.731Z,101427.94
2022-10-04T18:53:47.830Z,101429.91
2022-10-04T18:59:13.774Z,101431.09
2022-10-04T19:04:26.684Z,101413.91
2022-10-04T19:09:51.405Z,101405.03
2022-10-04T19:15:04.439Z,101389.72
2022-10-04T19:20:19.028Z,101387.78
2022-10-04T19:25:31.953Z,101387.22
2022-10-04T19:30:51.500Z,101387.13
2022-10-04T19:36:05.872Z,101397.00
2022-10-04T19:41:50.709Z,101398.28
2022-10-04T19:47:02.480Z,101403.72
2022-10-04T19:52:23.338Z,101416.50
2022-10-04T19:57:36.475Z,101412.81
2022-10-04T20:02:39.629Z,101414.88
2022-10-04T20:07:47.845Z,101420.34
2022-10-04T20:13:17.117Z,101415.59
2022-10-04T20:18:31.608Z,101424.47
2022-10-04T20:23:36.871Z,101413.94
2022-10-04T20:28:42.744Z,101416.50
2022-10-04T20:33:45.944Z,101402.06
2022-10-04T20:39:01.450Z,101402.03
2022-10-04T20:44:03.917Z,101395.03
2022-10-04T20:49:15.670Z,101389.91
2022-10-04T20:54:36.326Z,101393.31
2022-10-04T20:59:37.892Z,101392.34
2022-10-04T21:04:44.243Z,101382.03
2022-10-04T21:09:46.014Z,101385.00
2022-10-04T21:15:03.060Z,101391.47
2022-10-04T21:20:11.553Z,101408.19
2022-10-04T21:25:31.178Z,101392.00
2022-10-04T21:30:35.504Z,101390.25
2022-10-04T21:35:36.968Z,101394.09
2022-10-04T21:40:38.489Z,101382.91
2022-10-04T21:45:40.064Z,101389.22
2022-10-04T21:50:41.670Z,101393.00
2022-10-04T21:55:43.172Z,101389.31
2022-10-04T22:00:44.699Z,101396.13
2022-10-04T22:05:46.231Z,101405.28
2022-10-04T22:10:48.640Z,101385.41
2022-10-04T22:15:50.151Z,101382.41
2022-10-04T22:20:51.660Z,101381.47
2022-10-04T22:25:55.144Z,101368.22
2022-10-04T22:31:00.082Z,101381.28
2022-10-04T22:36:31.786Z,101391.91
2022-10-04T22:41:38.907Z,101391.28
2022-10-04T22:46:43.957Z,101385.28
2022-10-04T22:51:48.501Z,101381.59
2022-10-04T22:56:51.485Z,101378.06
2022-10-04T23:01:53.132Z,101377.41
2022-10-04T23:06:54.552Z,101369.72
2022-10-04T23:11:56.062Z,101373.94
2022-10-04T23:16:57.676Z,101371.50
2022-10-04T23:21:59.425Z,101364.75
2022-10-04T23:27:03.716Z,101371.94
2022-10-04T23:37:56.451Z,101371.41
2022-10-04T23:43:05.680Z,101362.47
2022-10-04T23:48:11.029Z,101349.41
2022-10-04T23:53:27.069Z,101336.00
2022-10-04T23:58:36.299Z,101327.28
